Observations for GENOVA SESTRI, Italy (LIMJ)

LIMJ 260450Z 02007KT CAVOK 25/17 Q1016  
LIMJ 260420Z 01003KT 330V060 CAVOK 25/17 Q1016  
LIMJ 260350Z 02004KT CAVOK 25/17 Q1016  
LIMJ 260320Z 35004KT 320V020 CAVOK 25/17 Q1016  
LIMJ 260250Z 03006KT 360V060 CAVOK 25/18 Q1016  
LIMJ 260220Z 03005KT 330V070 CAVOK 25/18 Q1016  
LIMJ 260150Z 35003KT 310V030 CAVOK 25/18 Q1016  
LIMJ 260120Z 03003KT 360V060 CAVOK 24/18 Q1017  
LIMJ 260050Z 02004KT CAVOK 24/18 Q1017  
LIMJ 260020Z 02005KT CAVOK 24/19 Q1017  
LIMJ 252350Z 02004KT CAVOK 24/19 Q1017  
LIMJ 252320Z 02005KT CAVOK 25/19 Q1017  
LIMJ 252250Z 03005KT CAVOK 25/19 Q1017  
LIMJ 252220Z 03004KT CAVOK 25/19 Q1017  
LIMJ 252150Z 02004KT CAVOK 25/20 Q1017  
LIMJ 252120Z 02005KT CAVOK 25/20 Q1017  
LIMJ 252050Z 02005KT CAVOK 25/20 Q1017  
LIMJ 252020Z 04004KT CAVOK 26/20 Q1017  
LIMJ 251950Z VRB02KT CAVOK 26/20 Q1017  
LIMJ 251920Z 24002KT CAVOK 26/21 Q1017  
LIMJ 251850Z 22004KT CAVOK 26/21 Q1016  
LIMJ 251820Z 26006KT CAVOK 26/22 Q1016  
LIMJ 251750Z 26004KT CAVOK 26/21 Q1016  
LIMJ 251720Z 21003KT CAVOK 27/20 Q1016  
LIMJ 251650Z 25006KT CAVOK 27/21 Q1016  
LIMJ 251620Z 26006KT CAVOK 28/21 Q1016  
LIMJ 251550Z 25004KT CAVOK 28/21 Q1016  
LIMJ 251520Z 20004KT 9999 FEW060 28/20 Q1016
LIMJ 251450Z 15007KT 9999 FEW060 28/21 Q1016
LIMJ 251420Z 14008KT 9999 FEW030 29/21 Q1016
LIMJ 251350Z 14007KT 9999 FEW030 29/21 Q1016
LIMJ 251320Z 14008KT 110V170 9999 FEW030 28/21 Q1016
LIMJ 251250Z 14006KT 120V180 9999 FEW030 29/20 Q1016
LIMJ 251220Z 15006KT 9999 FEW030 29/20 Q1017
LIMJ 251150Z 16006KT 9999 FEW030 29/21 Q1017
LIMJ 251120Z 19008KT CAVOK 29/20 Q1017  
LIMJ 251050Z 07010KT CAVOK 31/18 Q1016  
LIMJ 251020Z 06009KT 020V090 CAVOK 31/18 Q1017  
LIMJ 250950Z 06010KT CAVOK 30/18 Q1017  
LIMJ 250920Z 06009KT CAVOK 30/18 Q1017  
LIMJ 250850Z 05010KT CAVOK 29/18 Q1017  
LIMJ 250820Z 05008KT 010V070 CAVOK 28/19 Q1017  
LIMJ 250750Z 06006KT 030V090 CAVOK 28/18 Q1017  
LIMJ 250720Z VRB01KT CAVOK 28/18 Q1017  
LIMJ 250650Z 06005KT 020V080 CAVOK 26/18 Q1016  
LIMJ 250620Z 08003KT 030V110 9999 FEW060 26/18 Q1016
LIMJ 250550Z VRB02KT 9999 FEW060 26/18 Q1016
LIMJ 250520Z 05003KT 020V080 9999 FEW060 25/18 Q1016
LIMJ 250450Z 05005KT 360V080 9999 FEW060 25/18 Q1016
LIMJ 250420Z 06006KT CAVOK 25/18 Q1016